createdAt,value
2019-02-28T00:01:04.096Z,102315.71
2019-02-28T00:04:07.215Z,102309.89
2019-02-28T00:07:10.320Z,102308.39
2019-02-28T00:10:13.520Z,102307.90
2019-02-28T00:13:21.405Z,102305.73
2019-02-28T00:16:19.805Z,102306.89
2019-02-28T00:19:24.007Z,102300.96
2019-02-28T00:22:26.135Z,102296.74
2019-02-28T00:25:29.271Z,102299.18
2019-02-28T00:28:32.481Z,102298.68
2019-02-28T00:31:35.678Z,102297.06
2019-02-28T00:34:39.228Z,102291.65
2019-02-28T00:37:42.175Z,102290.13
2019-02-28T00:40:45.367Z,102275.69
2019-02-28T00:43:48.572Z,102277.60
2019-02-28T00:46:51.734Z,102284.56
2019-02-28T00:49:55.588Z,102279.70
2019-02-28T00:52:58.134Z,102265.78
2019-02-28T00:56:01.339Z,102274.23
2019-02-28T00:59:04.523Z,102259.35
2019-02-28T01:02:07.853Z,102248.15
2019-02-28T01:05:11.129Z,102250.45
2019-02-28T01:08:14.316Z,102246.52
2019-02-28T01:11:17.515Z,102242.55
2019-02-28T01:14:20.699Z,102241.54
2019-02-28T01:17:24.121Z,102238.66
2019-02-28T01:20:27.096Z,102233.84
2019-02-28T01:23:30.308Z,102232.90
2019-02-28T01:26:33.576Z,102227.23
2019-02-28T01:29:36.874Z,102225.79
2019-02-28T01:32:39.975Z,102220.29
2019-02-28T01:35:43.901Z,102219.05
2019-02-28T01:38:47.076Z,102212.81
2019-02-28T01:41:50.652Z,102208.19
2019-02-28T01:44:53.884Z,102203.67
2019-02-28T01:47:57.179Z,102208.65
2019-02-28T01:51:01.590Z,102205.60
2019-02-28T01:54:03.653Z,102201.85
2019-02-28T01:57:09.002Z,102201.06
2019-02-28T02:00:12.021Z,102202.08
2019-02-28T02:03:15.191Z,102202.14
2019-02-28T02:06:18.390Z,102195.81
2019-02-28T02:09:21.581Z,102190.44
2019-02-28T02:12:24.788Z,102194.73
2019-02-28T02:15:27.976Z,102185.90
2019-02-28T02:18:31.263Z,102183.25
2019-02-28T02:21:34.885Z,102179.07
2019-02-28T02:24:37.748Z,102176.75
2019-02-28T02:27:40.939Z,102177.24
2019-02-28T02:30:50.475Z,102174.96
2019-02-28T02:33:51.132Z,102175.26
2019-02-28T02:36:54.243Z,102176.75
2019-02-28T02:39:53.543Z,102167.01
2019-02-28T02:42:56.706Z,102170.49
2019-02-28T02:46:00.445Z,102163.25
2019-02-28T02:49:03.607Z,102156.68
2019-02-28T02:52:06.804Z,102156.55
2019-02-28T02:55:10.015Z,102145.81
2019-02-28T02:58:13.246Z,102146.47
2019-02-28T03:01:16.388Z,102142.02
2019-02-28T03:04:23.016Z,102136.18
2019-02-28T03:07:24.518Z,102132.27
2019-02-28T03:10:25.875Z,102131.57
2019-02-28T03:13:29.053Z,102127.15
2019-02-28T03:16:33.391Z,102121.62
2019-02-28T03:19:35.257Z,102118.54
2019-02-28T03:22:38.504Z,102123.78
2019-02-28T03:25:41.633Z,102120.31
2019-02-28T03:28:44.828Z,102118.23
2019-02-28T03:31:54.936Z,102118.17
2019-02-28T03:34:58.311Z,102121.11
2019-02-28T03:37:54.214Z,102122.17
2019-02-28T03:40:57.401Z,102118.43
2019-02-28T03:44:00.587Z,102117.56
2019-02-28T03:47:03.795Z,102122.95
2019-02-28T03:50:07.102Z,102122.92
2019-02-28T03:53:10.276Z,102122.30
2019-02-28T03:56:14.664Z,102126.06
2019-02-28T03:59:18.853Z,102119.27
2019-02-28T04:02:22.172Z,102120.59
2019-02-28T04:05:28.011Z,102127.26
2019-02-28T04:08:30.449Z,102125.33
2019-02-28T04:11:31.381Z,102124.89
2019-02-28T04:14:33.030Z,102123.21
2019-02-28T04:17:35.844Z,102120.24
2019-02-28T04:20:39.028Z,102120.48
2019-02-28T04:23:42.227Z,102123.88
2019-02-28T04:26:45.527Z,102124.03
2019-02-28T04:29:48.724Z,102123.64
2019-02-28T04:32:51.816Z,102132.07
2019-02-28T04:35:56.906Z,102130.71
2019-02-28T04:38:58.311Z,102126.35
2019-02-28T04:42:04.943Z,102125.50
2019-02-28T04:45:05.567Z,102128.14
2019-02-28T04:48:13.692Z,102119.10
2019-02-28T04:51:11.801Z,102131.90
2019-02-28T04:54:14.976Z,102127.49
2019-02-28T04:57:20.713Z,102130.61
2019-02-28T05:00:21.285Z,102134.01
2019-02-28T05:03:27.991Z,102126.56
2019-02-28T05:06:27.764Z,102127.76
2019-02-28T05:09:30.969Z,102126.78
2019-02-28T05:12:36.293Z,102120.62
2019-02-28T05:15:38.467Z,102124.85
2019-02-28T05:18:40.561Z,102125.82
2019-02-28T05:21:43.734Z,102130.31
2019-02-28T05:24:46.836Z,102120.84
2019-02-28T05:27:50.026Z,102126.65
2019-02-28T05:30:53.882Z,102130.71
2019-02-28T05:33:56.519Z,102127.96
2019-02-28T05:36:59.710Z,102124.13
2019-02-28T05:40:06.106Z,102127.67
2019-02-28T05:43:06.099Z,102125.16
2019-02-28T05:46:09.316Z,102135.25
2019-02-28T05:49:12.499Z,102138.91
2019-02-28T05:52:15.696Z,102146.04
2019-02-28T05:55:24.601Z,102151.17
2019-02-28T05:58:22.077Z,102161.73
2019-02-28T06:01:25.268Z,102165.18
2019-02-28T06:04:28.459Z,102165.57
2019-02-28T06:07:31.670Z,102165.57
2019-02-28T06:10:34.863Z,102168.71
2019-02-28T06:13:38.046Z,102167.47
2019-02-28T06:16:46.361Z,102167.20
2019-02-28T06:19:44.540Z,102163.81
2019-02-28T06:22:47.734Z,102163.68
2019-02-28T06:25:50.945Z,102170.52
2019-02-28T06:28:54.111Z,102168.44
2019-02-28T06:31:57.419Z,102163.60
2019-02-28T06:35:01.006Z,102167.25
2019-02-28T06:38:06.697Z,102163.72
2019-02-28T06:41:07.596Z,102165.46
2019-02-28T06:44:10.524Z,102164.28
2019-02-28T06:47:14.258Z,102171.09
2019-02-28T06:50:16.999Z,102172.45
2019-02-28T06:53:20.203Z,102169.69
2019-02-28T06:56:23.476Z,102167.65
2019-02-28T06:59:26.686Z,102169.43
2019-02-28T07:02:31.409Z,102165.95
2019-02-28T07:05:33.075Z,102168.87
2019-02-28T07:08:36.274Z,102168.40
2019-02-28T07:11:39.523Z,102177.68
2019-02-28T07:14:48.060Z,102182.85
2019-02-28T07:17:47.514Z,102183.84
2019-02-28T07:20:49.357Z,102187.55
2019-02-28T07:23:53.328Z,102183.20
2019-02-28T07:26:55.634Z,102185.48
2019-02-28T07:29:58.847Z,102186.47
2019-02-28T07:33:02.131Z,102185.81
2019-02-28T07:36:05.602Z,102193.82
2019-02-28T07:39:08.572Z,102190.96
2019-02-28T07:42:11.799Z,102195.27
2019-02-28T07:45:15.039Z,102191.02
2019-02-28T07:48:18.301Z,102188.28
2019-02-28T07:51:22.317Z,102187.34
2019-02-28T07:54:24.811Z,102179.93
2019-02-28T07:57:28.001Z,102169.58
2019-02-28T08:00:31.182Z,102155.95
2019-02-28T08:03:34.388Z,102158.66
2019-02-28T08:06:39.407Z,102166.24
2019-02-28T08:09:41.571Z,102174.35
2019-02-28T08:12:43.976Z,102177.56
2019-02-28T08:15:47.163Z,102183.08
2019-02-28T08:18:51.274Z,102180.99
2019-02-28T08:21:53.639Z,102175.56
2019-02-28T08:24:56.940Z,102164.27
2019-02-28T08:28:00.887Z,102166.13
2019-02-28T08:31:03.436Z,102158.10
2019-02-28T08:34:06.767Z,102155.02
2019-02-28T08:37:11.156Z,102143.90
2019-02-28T08:40:15.648Z,102143.54
2019-02-28T08:43:26.830Z,102142.91
2019-02-28T08:46:21.559Z,102144.59
2019-02-28T08:49:24.782Z,102146.88
2019-02-28T08:52:27.987Z,102142.62
2019-02-28T08:55:31.387Z,102147.69
2019-02-28T08:58:37.797Z,102140.50
2019-02-28T09:01:40.994Z,102127.46
2019-02-28T09:04:44.690Z,102126.80
2019-02-28T09:07:44.454Z,102118.43
2019-02-28T09:10:47.920Z,102117.40
2019-02-28T09:13:50.925Z,102111.39
2019-02-28T09:16:54.116Z,102110.32
2019-02-28T09:19:57.322Z,102104.47
2019-02-28T09:23:02.393Z,102105.54
2019-02-28T09:26:03.812Z,102117.09
2019-02-28T09:29:07.020Z,102098.40
2019-02-28T09:32:13.592Z,102107.56
2019-02-28T09:35:14.532Z,102113.33
2019-02-28T09:38:16.679Z,102113.21
2019-02-28T09:41:19.893Z,102106.79
2019-02-28T09:44:23.090Z,102096.20
2019-02-28T09:47:27.336Z,102091.26
2019-02-28T09:50:29.685Z,102101.31
2019-02-28T09:53:32.948Z,102098.89
2019-02-28T09:56:36.147Z,102105.74
2019-02-28T09:59:39.499Z,102100.57
2019-02-28T10:02:43.793Z,102093.57
2019-02-28T10:05:45.935Z,102096.85
2019-02-28T10:08:49.181Z,102087.06
2019-02-28T10:11:52.413Z,102086.29
2019-02-28T10:14:55.750Z,102084.08
2019-02-28T10:18:00.782Z,102082.84
2019-02-28T10:21:03.503Z,102085.89
2019-02-28T10:24:06.756Z,102082.40
2019-02-28T10:27:09.952Z,102072.28
2019-02-28T10:30:16.673Z,102059.60
2019-02-28T10:33:18.803Z,102054.09
2019-02-28T10:36:22.014Z,102061.72
2019-02-28T10:39:25.189Z,102061.09
2019-02-28T10:42:28.375Z,102053.33
2019-02-28T10:45:31.586Z,102043.50
2019-02-28T10:48:35.267Z,102041.96
2019-02-28T10:51:38.106Z,102040.21
2019-02-28T10:54:41.359Z,102029.67
2019-02-28T10:57:44.551Z,102021.79
2019-02-28T11:00:47.903Z,102013.96
2019-02-28T11:03:51.175Z,102012.55
2019-02-28T11:06:54.335Z,102007.53
2019-02-28T11:09:58.778Z,102017.81
2019-02-28T11:13:00.749Z,102020.31
2019-02-28T11:16:03.978Z,102020.26
2019-02-28T11:19:07.167Z,102024.05
2019-02-28T11:22:10.300Z,102022.39
2019-02-28T11:25:13.523Z,102026.74
2019-02-28T11:28:16.815Z,102022.97
2019-02-28T11:31:20.151Z,102027.01
2019-02-28T11:34:23.370Z,102020.55
2019-02-28T11:37:26.706Z,102015.94
2019-02-28T11:40:29.899Z,102000.02
2019-02-28T11:43:37.512Z,101989.92
2019-02-28T11:46:36.713Z,101987.39
2019-02-28T11:49:39.619Z,101979.75
2019-02-28T11:52:42.796Z,101982.67
2019-02-28T11:55:45.978Z,101983.84
2019-02-28T11:58:51.672Z,101978.51
2019-02-28T12:01:52.364Z,101969.34
2019-02-28T12:04:55.643Z,101964.29
2019-02-28T12:07:58.863Z,101958.28
2019-02-28T12:11:02.895Z,101949.59
2019-02-28T12:14:06.339Z,101949.85
2019-02-28T12:17:08.611Z,101960.58
2019-02-28T12:20:12.636Z,101946.83
2019-02-28T12:23:15.859Z,101947.09
2019-02-28T12:26:21.027Z,101930.36
2019-02-28T12:29:22.345Z,101919.18
2019-02-28T12:32:25.692Z,101914.06
2019-02-28T12:35:28.834Z,101906.50
2019-02-28T12:38:32.101Z,101898.53
2019-02-28T12:41:35.232Z,101891.01
2019-02-28T12:44:38.432Z,101883.26
2019-02-28T12:47:42.232Z,101878.54
2019-02-28T12:50:44.955Z,101869.38
2019-02-28T12:53:48.120Z,101869.96
2019-02-28T12:56:51.312Z,101869.74
2019-02-28T12:59:54.508Z,101868.39
2019-02-28T13:02:57.699Z,101861.60
2019-02-28T13:06:00.879Z,101860.15
2019-02-28T13:09:05.317Z,101857.60
2019-02-28T13:12:11.936Z,101848.86
2019-02-28T13:15:13.088Z,101844.55
2019-02-28T13:18:15.535Z,101844.06
2019-02-28T13:21:18.712Z,101844.36
2019-02-28T13:24:21.900Z,101840.47
2019-02-28T13:27:25.128Z,101845.63
2019-02-28T13:30:28.311Z,101845.52
2019-02-28T13:33:31.481Z,101831.19
2019-02-28T13:36:35.379Z,101827.78
2019-02-28T13:39:38.595Z,101815.95
2019-02-28T13:42:42.283Z,101824.61
2019-02-28T13:45:44.970Z,101810.37
2019-02-28T13:48:48.198Z,101808.95
2019-02-28T13:51:51.349Z,101800.29
2019-02-28T13:54:54.554Z,101794.10
2019-02-28T13:57:57.743Z,101795.91
2019-02-28T14:01:00.940Z,101794.36
2019-02-28T14:04:04.136Z,101803.60
2019-02-28T14:07:07.737Z,101793.74
2019-02-28T14:10:11.608Z,101781.40
2019-02-28T14:13:14.355Z,101787.33
2019-02-28T14:16:17.555Z,101785.90
2019-02-28T14:19:21.452Z,101789.00
2019-02-28T14:22:23.923Z,101774.79
2019-02-28T14:25:27.107Z,101777.76
2019-02-28T14:28:32.362Z,101775.68
2019-02-28T14:31:33.839Z,101774.55
2019-02-28T14:34:36.868Z,101773.07
2019-02-28T14:37:40.136Z,101771.96
2019-02-28T14:40:43.308Z,101765.93
2019-02-28T14:43:46.563Z,101772.54
2019-02-28T14:46:52.804Z,101778.30
2019-02-28T14:49:53.310Z,101780.41
2019-02-28T14:52:56.892Z,101776.83
2019-02-28T14:56:00.082Z,101783.46
2019-02-28T14:59:03.196Z,101790.77
2019-02-28T15:02:06.462Z,101786.32
2019-02-28T15:05:10.466Z,101795.92
2019-02-28T15:08:15.413Z,101795.68
2019-02-28T15:11:16.690Z,101805.80
2019-02-28T15:14:19.967Z,101803.01
2019-02-28T15:17:23.164Z,101806.01
2019-02-28T15:20:31.795Z,101807.39
2019-02-28T15:23:30.844Z,101807.80
2019-02-28T15:26:33.163Z,101811.50
2019-02-28T15:29:35.959Z,101808.52
2019-02-28T15:32:39.253Z,101815.24
2019-02-28T15:35:42.360Z,101837.54
2019-02-28T15:38:45.534Z,101838.37
2019-02-28T15:41:48.746Z,101837.25
2019-02-28T15:44:52.026Z,101833.52
2019-02-28T15:47:58.992Z,101826.39
2019-02-28T15:50:59.631Z,101836.50
2019-02-28T15:54:02.967Z,101831.07
2019-02-28T15:57:06.112Z,101831.75
2019-02-28T16:00:13.631Z,101839.02
2019-02-28T16:03:17.482Z,101840.83
2019-02-28T16:06:20.608Z,101830.21
2019-02-28T16:09:23.241Z,101836.24
2019-02-28T16:12:26.348Z,101850.44
2019-02-28T16:15:29.510Z,101845.31
2019-02-28T16:18:32.684Z,101840.39
2019-02-28T16:21:38.115Z,101849.10
2019-02-28T16:24:39.756Z,101862.77
2019-02-28T16:27:42.192Z,101867.33
2019-02-28T16:30:45.384Z,101874.86
2019-02-28T16:33:48.559Z,101871.53
2019-02-28T16:36:51.790Z,101885.92
2019-02-28T16:39:54.963Z,101894.60
2019-02-28T16:42:58.139Z,101910.58
2019-02-28T16:46:01.352Z,101911.33
2019-02-28T16:49:07.396Z,101916.40
2019-02-28T16:52:07.735Z,101934.47
2019-02-28T16:55:11.040Z,101942.74
2019-02-28T16:58:14.131Z,101943.64
2019-02-28T17:01:17.552Z,101949.45
2019-02-28T17:04:20.524Z,101963.20
2019-02-28T17:07:23.795Z,101966.74
2019-02-28T17:10:32.278Z,101971.67
2019-02-28T17:13:41.423Z,101977.88
2019-02-28T17:16:48.844Z,101983.19
2019-02-28T17:19:52.156Z,101993.77
2019-02-28T17:22:58.611Z,102003.69
2019-02-28T17:25:59.526Z,102013.31
2019-02-28T17:29:07.948Z,102017.65
2019-02-28T17:32:12.439Z,102021.30
2019-02-28T17:35:15.834Z,102029.04
2019-02-28T17:38:19.233Z,102029.20
2019-02-28T17:41:23.629Z,102026.92
2019-02-28T17:44:41.592Z,102035.86
2019-02-28T17:50:00.078Z,102034.69
2019-02-28T17:53:46.000Z,102035.54
2019-02-28T17:57:59.758Z,102040.08
2019-02-28T18:01:12.947Z,102042.86
2019-02-28T18:04:27.268Z,102046.95
2019-02-28T18:08:38.545Z,102045.68
2019-02-28T18:11:55.015Z,102050.10
2019-02-28T18:15:08.878Z,102050.10
2019-02-28T18:18:26.278Z,102049.10
2019-02-28T18:21:42.827Z,102054.69
2019-02-28T18:25:06.137Z,102056.42
2019-02-28T18:28:22.582Z,102056.76
2019-02-28T18:31:23.036Z,102063.56
2019-02-28T18:34:28.248Z,102066.26
2019-02-28T18:37:31.379Z,102066.06
2019-02-28T18:40:37.899Z,102060.05
2019-02-28T18:43:41.151Z,102057.72
2019-02-28T18:46:45.361Z,102055.93
2019-02-28T18:49:48.589Z,102048.20
2019-02-28T18:52:51.763Z,102051.70
2019-02-28T18:55:54.981Z,102048.22
2019-02-28T18:58:58.262Z,102050.12
2019-02-28T19:02:01.543Z,102048.43
2019-02-28T19:05:06.897Z,102051.54
2019-02-28T19:08:08.151Z,102047.30
2019-02-28T19:11:11.319Z,102060.87
2019-02-28T19:14:14.999Z,102064.79
2019-02-28T19:17:18.088Z,102062.03
2019-02-28T19:20:21.215Z,102053.62
2019-02-28T19:23:24.415Z,102060.55
2019-02-28T19:26:27.600Z,102056.56
2019-02-28T19:29:30.803Z,102060.78
2019-02-28T19:32:33.979Z,102056.93
2019-02-28T19:35:37.195Z,102059.29
2019-02-28T19:38:40.477Z,102060.09
2019-02-28T19:41:43.675Z,102051.21
2019-02-28T19:44:46.924Z,102053.20
2019-02-28T19:47:50.076Z,102054.24
2019-02-28T19:50:53.177Z,102050.02
2019-02-28T19:53:56.372Z,102052.09
2019-02-28T19:56:59.510Z,102060.32
2019-02-28T20:00:02.662Z,102055.05
2019-02-28T20:03:05.848Z,102053.32
2019-02-28T20:06:09.031Z,102047.95
2019-02-28T20:09:12.156Z,102037.75
2019-02-28T20:12:15.458Z,102029.71
2019-02-28T20:15:18.651Z,102019.14
2019-02-28T20:18:21.858Z,102024.20
2019-02-28T20:21:24.995Z,102021.35
2019-02-28T20:24:28.147Z,102010.77
2019-02-28T20:27:31.414Z,102010.75
2019-02-28T20:30:34.662Z,102007.40
2019-02-28T20:33:37.809Z,102005.79
2019-02-28T20:36:40.936Z,102002.91
2019-02-28T20:39:44.180Z,102007.70
2019-02-28T20:42:47.977Z,102008.91
2019-02-28T20:45:51.788Z,102003.98
2019-02-28T20:48:54.988Z,102014.53
2019-02-28T20:51:58.213Z,102014.22
2019-02-28T20:55:01.383Z,102010.21
2019-02-28T20:58:04.713Z,102008.60
2019-02-28T21:01:07.841Z,102009.34
2019-02-28T21:04:11.101Z,101998.63
2019-02-28T21:07:14.385Z,102000.24
2019-02-28T21:10:17.554Z,101998.69
2019-02-28T21:13:21.034Z,101998.49
2019-02-28T21:16:24.157Z,101995.38
2019-02-28T21:19:28.223Z,101994.44
2019-02-28T21:22:31.357Z,101988.48
2019-02-28T21:25:34.448Z,101991.47
2019-02-28T21:28:37.664Z,101988.55
2019-02-28T21:31:40.943Z,101997.93
2019-02-28T21:34:44.250Z,101981.93
2019-02-28T21:37:47.475Z,101985.81
2019-02-28T21:40:50.658Z,101982.76
2019-02-28T21:43:53.915Z,101978.97
2019-02-28T21:46:57.138Z,101977.22
2019-02-28T21:50:00.471Z,101969.27
2019-02-28T21:53:03.519Z,101969.01
2019-02-28T21:56:06.720Z,101965.32
2019-02-28T21:59:10.008Z,101965.56
2019-02-28T22:02:13.226Z,101953.86
2019-02-28T22:05:16.432Z,101948.63
2019-02-28T22:08:19.590Z,101943.46
2019-02-28T22:11:22.761Z,101942.57
2019-02-28T22:14:25.973Z,101946.96
2019-02-28T22:17:29.251Z,101948.06
2019-02-28T22:20:32.627Z,101941.17
2019-02-28T22:23:35.771Z,101938.97
2019-02-28T22:26:39.047Z,101942.11
2019-02-28T22:29:42.339Z,101942.75
2019-02-28T22:32:49.907Z,101947.50
2019-02-28T22:35:55.566Z,101933.91
2019-02-28T22:38:58.676Z,101933.35
2019-02-28T22:42:01.800Z,101928.35
2019-02-28T22:45:05.838Z,101920.87
2019-02-28T22:48:08.987Z,101921.67
2019-02-28T22:51:12.225Z,101921.57
2019-02-28T22:54:15.901Z,101918.55
2019-02-28T22:57:19.079Z,101923.40
2019-02-28T23:00:27.875Z,101919.21
2019-02-28T23:03:31.214Z,101918.28
2019-02-28T23:06:34.401Z,101920.41
2019-02-28T23:09:37.494Z,101916.76
2019-02-28T23:12:40.796Z,101923.57
2019-02-28T23:15:43.999Z,101927.52
2019-02-28T23:18:47.179Z,101925.94
2019-02-28T23:21:50.479Z,101917.39
2019-02-28T23:24:53.671Z,101911.66
2019-02-28T23:28:08.224Z,101914.06
2019-02-28T23:31:24.195Z,101910.68
2019-02-28T23:34:32.919Z,101916.03
2019-02-28T23:37:36.043Z,101912.31
2019-02-28T23:40:39.290Z,101909.04
2019-02-28T23:43:42.451Z,101897.89
2019-02-28T23:46:45.651Z,101896.65
2019-02-28T23:49:48.824Z,101890.57
2019-02-28T23:52:52.015Z,101883.93
2019-02-28T23:55:55.219Z,101874.01
2019-02-28T23:58:58.411Z,101872.53
